Time;durP1;ratioP1;P1;durP2;ratioP2;P2;SDS_P1;SDS_P2;PMS_P1;PMS_P2;Temp;Humidity;BMP_temperature;BMP_pressure;BME280_temperature;BME280_humidity;BME280_pressure;Samples;Min_cycle;Max_cycle;Signal;HPM_P1;HPM_P2
2021/12/23 00:00:09;;;;;;;20.60;16.23;;;;;;;;;;5067659;28;20219;-68
2021/12/23 00:02:38;;;;;;;20.50;15.00;;;;;;;;;;5067689;28;20731;-68
2021/12/23 00:05:05;;;;;;;20.27;15.20;;;;;;;;;;5067798;28;20737;-69
2021/12/23 00:07:32;;;;;;;21.47;14.87;;;;;;;;;;5065137;28;20230;-68
2021/12/23 00:10:08;;;;;;;20.67;16.77;;;;;;;;;;5066651;28;21034;-69
2021/12/23 00:12:37;;;;;;;19.33;14.93;;;;;;;;;;5067388;28;20223;-69
2021/12/23 00:15:15;;;;;;;19.87;15.77;;;;;;;;;;5066106;28;20212;-68
2021/12/23 00:17:56;;;;;;;19.37;15.57;;;;;;;;;;5067150;28;20705;-68
2021/12/23 00:23:26;;;;;;;18.70;14.37;;;;;;;;;;5068019;28;20284;-68
2021/12/23 00:25:55;;;;;;;18.70;14.77;;;;;;;;;;5067172;28;20722;-68
2021/12/23 00:28:22;;;;;;;18.17;14.93;;;;;;;;;;5067951;28;20229;-69
2021/12/23 00:30:50;;;;;;;20.63;15.17;;;;;;;;;;5068315;28;20738;-68
2021/12/23 00:33:16;;;;;;;16.90;14.27;;;;;;;;;;5067694;28;20221;-68
2021/12/23 00:35:43;;;;;;;19.90;14.50;;;;;;;;;;5071302;28;20254;-69
2021/12/23 00:38:17;;;;;;;19.37;14.97;;;;;;;;;;5071452;28;20304;-69
2021/12/23 00:40:43;;;;;;;19.57;14.97;;;;;;;;;;5071778;28;20222;-69
2021/12/23 00:43:10;;;;;;;20.23;15.47;;;;;;;;;;5070999;28;20655;-69
2021/12/23 00:45:36;;;;;;;19.00;15.30;;;;;;;;;;5071128;28;20207;-69
2021/12/23 00:48:05;;;;;;;19.50;15.20;;;;;;;;;;5070151;28;20228;-69
2021/12/23 00:50:31;;;;;;;18.37;14.93;;;;;;;;;;5068346;28;20601;-69
2021/12/23 00:53:00;;;;;;;19.97;16.10;;;;;;;;;;5070265;28;20258;-69
2021/12/23 00:55:26;;;;;;;20.10;14.97;;;;;;;;;;5069490;28;21295;-68
2021/12/23 00:57:53;;;;;;;18.20;14.87;;;;;;;;;;5069784;28;20205;-69
2021/12/23 01:00:20;;;;;;;18.90;14.17;;;;;;;;;;5070928;28;20214;-69
2021/12/23 01:02:47;;;;;;;18.03;14.87;;;;;;;;;;5069829;28;20229;-69
2021/12/23 01:05:17;;;;;;;17.83;14.67;;;;;;;;;;5068976;28;20921;-68
2021/12/23 01:07:43;;;;;;;21.43;14.60;;;;;;;;;;5070754;28;20684;-69
2021/12/23 01:10:11;;;;;;;18.47;14.37;;;;;;;;;;5068075;28;20226;-68
2021/12/23 01:12:43;;;;;;;20.00;16.10;;;;;;;;;;5070977;28;20294;-69
2021/12/23 01:15:16;;;;;;;21.53;15.37;;;;;;;;;;5072015;28;20293;-69
2021/12/23 01:17:56;;;;;;;17.90;14.30;;;;;;;;;;5069610;28;20232;-68
2021/12/23 01:20:29;;;;;;;18.50;14.40;;;;;;;;;;5070059;28;20318;-68
2021/12/23 01:22:56;;;;;;;19.90;14.37;;;;;;;;;;5071865;28;20224;-71
2021/12/23 01:25:24;;;;;;;18.93;14.57;;;;;;;;;;5069438;28;20233;-69
2021/12/23 01:27:50;;;;;;;18.93;13.97;;;;;;;;;;5069146;28;20282;-68
2021/12/23 01:30:18;;;;;;;21.10;14.17;;;;;;;;;;5070473;28;20219;-69
2021/12/23 01:32:45;;;;;;;19.10;14.20;;;;;;;;;;5068900;28;20800;-68
2021/12/23 01:35:12;;;;;;;17.90;13.90;;;;;;;;;;5070389;28;20210;-69
2021/12/23 01:37:40;;;;;;;18.07;13.97;;;;;;;;;;5069248;28;20275;-69
2021/12/23 01:40:08;;;;;;;18.40;14.00;;;;;;;;;;5070940;28;20232;-68
2021/12/23 01:42:35;;;;;;;17.20;14.10;;;;;;;;;;5071344;28;20849;-69
2021/12/23 01:45:02;;;;;;;18.63;12.97;;;;;;;;;;5068632;28;20207;-69
2021/12/23 01:47:29;;;;;;;18.63;13.93;;;;;;;;;;5071314;28;20240;-69
2021/12/23 01:49:56;;;;;;;18.07;14.17;;;;;;;;;;5069004;28;20583;-69
2021/12/23 01:52:22;;;;;;;19.60;13.60;;;;;;;;;;5071212;28;20211;-69
2021/12/23 01:54:50;;;;;;;18.70;14.10;;;;;;;;;;5071142;28;20237;-69
2021/12/23 01:57:17;;;;;;;16.90;12.80;;;;;;;;;;5069826;28;20824;-69
2021/12/23 01:59:43;;;;;;;18.43;14.13;;;;;;;;;;5069188;28;20212;-68
2021/12/23 02:02:11;;;;;;;18.67;13.53;;;;;;;;;;5069720;28;20588;-68
2021/12/23 02:04:38;;;;;;;19.90;13.30;;;;;;;;;;5068924;28;20282;-69
2021/12/23 02:07:04;;;;;;;16.87;13.63;;;;;;;;;;5069105;28;20213;-68
2021/12/23 02:09:31;;;;;;;15.47;11.87;;;;;;;;;;5069327;28;20236;-69
2021/12/23 02:11:59;;;;;;;16.77;13.40;;;;;;;;;;5068072;28;20732;-69
2021/12/23 02:14:25;;;;;;;15.93;13.10;;;;;;;;;;5069394;28;20653;-69
2021/12/23 02:16:51;;;;;;;15.70;12.53;;;;;;;;;;5069441;28;20227;-69
2021/12/23 02:19:19;;;;;;;18.10;13.80;;;;;;;;;;5068695;28;20211;-69
2021/12/23 02:21:48;;;;;;;16.73;13.10;;;;;;;;;;5067564;28;20274;-69
2021/12/23 02:24:15;;;;;;;17.07;13.00;;;;;;;;;;5069958;28;20219;-69
2021/12/23 02:26:42;;;;;;;16.37;13.17;;;;;;;;;;5068334;28;20236;-69
2021/12/23 02:29:10;;;;;;;15.80;13.30;;;;;;;;;;5069157;28;20253;-69
2021/12/23 02:31:37;;;;;;;18.57;12.97;;;;;;;;;;5068961;28;20225;-69
2021/12/23 02:34:04;;;;;;;16.17;13.10;;;;;;;;;;5069751;28;20680;-69
2021/12/23 02:36:31;;;;;;;16.50;12.30;;;;;;;;;;5070270;28;20313;-69
2021/12/23 02:38:59;;;;;;;14.50;12.30;;;;;;;;;;5067538;28;20209;-69
2021/12/23 02:41:26;;;;;;;18.20;12.33;;;;;;;;;;5068526;28;20535;-68
2021/12/23 02:43:52;;;;;;;16.87;12.57;;;;;;;;;;5068409;28;20259;-69
2021/12/23 02:46:19;;;;;;;16.80;13.53;;;;;;;;;;5068859;28;20232;-68
2021/12/23 02:48:46;;;;;;;17.17;12.60;;;;;;;;;;5067860;28;20848;-69
2021/12/23 02:51:15;;;;;;;15.97;12.63;;;;;;;;;;5067683;28;20245;-69
2021/12/23 02:53:43;;;;;;;17.33;12.67;;;;;;;;;;5068281;28;20254;-69
2021/12/23 02:56:15;;;;;;;17.77;12.50;;;;;;;;;;5068683;28;20280;-68
2021/12/23 02:58:42;;;;;;;16.33;12.23;;;;;;;;;;5067914;28;20297;-69
2021/12/23 03:01:10;;;;;;;14.80;12.77;;;;;;;;;;5068085;28;20231;-68
2021/12/23 03:03:37;;;;;;;14.90;12.57;;;;;;;;;;5070027;28;20279;-69
2021/12/23 03:06:03;;;;;;;18.33;13.60;;;;;;;;;;5069221;28;20209;-69
2021/12/23 03:08:35;;;;;;;15.43;13.17;;;;;;;;;;5069228;28;20225;-69
2021/12/23 03:11:03;;;;;;;16.30;13.73;;;;;;;;;;5069151;28;20224;-69
2021/12/23 03:13:31;;;;;;;16.07;13.13;;;;;;;;;;5067908;28;20761;-70
2021/12/23 03:15:58;;;;;;;17.73;13.87;;;;;;;;;;5068181;28;20279;-68
2021/12/23 03:18:26;;;;;;;17.70;14.47;;;;;;;;;;5069238;28;20221;-69
2021/12/23 03:20:52;;;;;;;16.60;13.60;;;;;;;;;;5066407;28;21117;-68
2021/12/23 03:23:19;;;;;;;18.53;14.03;;;;;;;;;;5069567;28;20221;-69
2021/12/23 03:25:45;;;;;;;16.33;13.27;;;;;;;;;;5066597;28;20302;-69
2021/12/23 03:28:12;;;;;;;16.33;13.27;;;;;;;;;;5068135;28;20266;-68
2021/12/23 03:30:40;;;;;;;17.73;14.77;;;;;;;;;;5068227;28;20272;-68
2021/12/23 03:33:06;;;;;;;18.03;13.67;;;;;;;;;;5069383;28;20209;-69
2021/12/23 03:35:34;;;;;;;17.37;13.57;;;;;;;;;;5067313;28;20213;-68
2021/12/23 03:38:00;;;;;;;17.73;14.07;;;;;;;;;;5069553;28;20719;-69
2021/12/23 03:40:27;;;;;;;19.30;14.53;;;;;;;;;;5068753;28;20754;-68
2021/12/23 03:42:53;;;;;;;18.27;14.73;;;;;;;;;;5068755;28;20679;-69
2021/12/23 03:45:20;;;;;;;16.63;12.70;;;;;;;;;;5068731;28;20220;-68
2021/12/23 03:47:49;;;;;;;16.93;12.93;;;;;;;;;;5069798;28;20274;-69
2021/12/23 03:50:18;;;;;;;16.20;13.23;;;;;;;;;;5068427;28;20291;-67
2021/12/23 03:52:45;;;;;;;18.03;13.27;;;;;;;;;;5067739;28;20279;-67
2021/12/23 03:55:12;;;;;;;16.37;13.03;;;;;;;;;;5066609;28;20232;-68
2021/12/23 03:57:38;;;;;;;15.90;12.97;;;;;;;;;;5068796;28;20216;-71
2021/12/23 04:00:07;;;;;;;19.00;12.90;;;;;;;;;;5067478;28;20265;-70
2021/12/23 04:02:34;;;;;;;16.17;12.13;;;;;;;;;;5069214;28;20572;-70
2021/12/23 04:05:03;;;;;;;15.43;12.37;;;;;;;;;;5067437;28;20867;-70
2021/12/23 04:07:29;;;;;;;16.57;12.37;;;;;;;;;;5068400;28;20216;-70
2021/12/23 04:09:55;;;;;;;17.33;12.97;;;;;;;;;;5070536;28;20279;-70
2021/12/23 04:12:22;;;;;;;17.43;12.17;;;;;;;;;;5071539;28;20739;-70
2021/12/23 04:14:48;;;;;;;16.87;12.97;;;;;;;;;;5071475;28;20209;-70
2021/12/23 04:17:15;;;;;;;16.50;12.87;;;;;;;;;;5071885;28;20229;-71
2021/12/23 04:19:43;;;;;;;15.63;12.30;;;;;;;;;;5072114;28;20941;-70
2021/12/23 04:22:11;;;;;;;15.20;12.53;;;;;;;;;;5072634;28;20210;-70
2021/12/23 04:24:38;;;;;;;16.00;13.03;;;;;;;;;;5070538;28;20896;-70
2021/12/23 04:27:05;;;;;;;15.87;13.23;;;;;;;;;;5071679;28;20212;-67
2021/12/23 04:29:32;;;;;;;16.17;11.77;;;;;;;;;;5070644;28;20632;-70
2021/12/23 04:31:59;;;;;;;14.83;12.77;;;;;;;;;;5072419;28;20229;-69
2021/12/23 04:34:26;;;;;;;15.93;12.23;;;;;;;;;;5071686;28;20784;-70
2021/12/23 04:36:53;;;;;;;14.83;12.00;;;;;;;;;;5069881;28;20672;-70
2021/12/23 04:39:20;;;;;;;18.57;13.53;;;;;;;;;;5071149;28;20215;-69
2021/12/23 04:41:47;;;;;;;20.70;13.97;;;;;;;;;;5072319;28;20317;-70
2021/12/23 04:44:13;;;;;;;16.47;12.30;;;;;;;;;;5071438;28;20262;-67
2021/12/23 04:46:40;;;;;;;14.93;12.40;;;;;;;;;;5071555;28;20311;-70
2021/12/23 04:49:06;;;;;;;17.93;13.17;;;;;;;;;;5070920;28;20236;-70
2021/12/23 04:51:32;;;;;;;17.10;12.90;;;;;;;;;;5070909;28;20211;-70
2021/12/23 04:53:59;;;;;;;17.87;14.23;;;;;;;;;;5069150;28;21033;-71
2021/12/23 04:56:27;;;;;;;16.80;12.47;;;;;;;;;;5070600;28;20233;-68
2021/12/23 04:58:53;;;;;;;16.87;12.43;;;;;;;;;;5070972;28;20741;-69
2021/12/23 05:01:27;;;;;;;15.67;12.97;;;;;;;;;;5069213;28;20230;-70
2021/12/23 05:03:53;;;;;;;15.20;12.97;;;;;;;;;;5070441;28;20718;-70
2021/12/23 05:06:20;;;;;;;17.30;13.50;;;;;;;;;;5069256;28;20216;-70
2021/12/23 05:08:46;;;;;;;18.30;14.13;;;;;;;;;;5072121;28;20216;-70
2021/12/23 05:11:13;;;;;;;19.20;14.47;;;;;;;;;;5070885;28;20225;-69
2021/12/23 05:13:41;;;;;;;18.57;14.57;;;;;;;;;;5068984;28;20214;-69
2021/12/23 05:16:07;;;;;;;17.70;13.80;;;;;;;;;;5069892;28;20294;-70
2021/12/23 05:18:34;;;;;;;19.77;14.60;;;;;;;;;;5072581;28;20205;-70
2021/12/23 05:21:02;;;;;;;18.80;14.80;;;;;;;;;;5068872;28;20213;-71
2021/12/23 05:23:28;;;;;;;18.77;15.23;;;;;;;;;;5070782;28;20221;-70
2021/12/23 05:25:55;;;;;;;17.20;14.80;;;;;;;;;;5071734;28;20232;-70
2021/12/23 05:28:21;;;;;;;21.07;15.97;;;;;;;;;;5069411;28;20601;-70
2021/12/23 05:30:49;;;;;;;20.67;17.08;;;;;;;;;;5068885;28;20818;-76
2021/12/23 05:33:16;;;;;;;19.73;15.40;;;;;;;;;;5069821;28;20261;-76
2021/12/23 05:35:42;;;;;;;20.43;15.60;;;;;;;;;;5069377;28;20213;-76
2021/12/23 05:38:09;;;;;;;20.00;14.37;;;;;;;;;;5071136;28;20711;-77
2021/12/23 05:40:36;;;;;;;20.43;15.57;;;;;;;;;;5070955;28;20292;-76
2021/12/23 05:43:03;;;;;;;22.77;17.30;;;;;;;;;;5070120;28;20342;-76
2021/12/23 05:45:31;;;;;;;19.00;14.50;;;;;;;;;;5072245;28;20262;-76
2021/12/23 05:47:58;;;;;;;20.87;16.67;;;;;;;;;;5070987;28;20218;-75
2021/12/23 05:50:25;;;;;;;20.17;16.23;;;;;;;;;;5069835;28;20293;-76
2021/12/23 05:52:53;;;;;;;19.63;15.30;;;;;;;;;;5068146;28;20742;-76
2021/12/23 05:55:20;;;;;;;22.10;15.90;;;;;;;;;;5071292;28;20262;-76
2021/12/23 05:57:47;;;;;;;20.97;15.57;;;;;;;;;;5070423;28;20222;-75
2021/12/23 06:00:17;;;;;;;18.33;14.20;;;;;;;;;;5068022;28;20519;-75
2021/12/23 06:02:44;;;;;;;19.20;15.43;;;;;;;;;;5069507;28;20277;-74
2021/12/23 06:05:12;;;;;;;19.37;14.67;;;;;;;;;;5070492;28;20246;-75
2021/12/23 06:07:40;;;;;;;23.17;16.47;;;;;;;;;;5069459;28;20210;-76
2021/12/23 06:10:08;;;;;;;19.97;16.63;;;;;;;;;;5067684;28;20328;-74
2021/12/23 06:12:35;;;;;;;20.93;15.97;;;;;;;;;;5069185;28;20213;-76
2021/12/23 06:15:01;;;;;;;21.33;15.93;;;;;;;;;;5069973;28;20207;-76
2021/12/23 06:17:28;;;;;;;21.67;16.87;;;;;;;;;;5070059;28;20893;-75
2021/12/23 06:19:54;;;;;;;20.87;14.90;;;;;;;;;;5069290;28;20441;-74
2021/12/23 06:22:22;;;;;;;18.83;15.50;;;;;;;;;;5068052;28;20214;-74
2021/12/23 06:24:49;;;;;;;21.23;16.07;;;;;;;;;;5068428;28;20227;-74
2021/12/23 06:27:17;;;;;;;21.83;16.77;;;;;;;;;;5069532;28;20252;-74
2021/12/23 06:29:44;;;;;;;21.87;16.87;;;;;;;;;;5069494;28;20722;-74
2021/12/23 06:32:11;;;;;;;23.20;18.30;;;;;;;;;;5069178;28;20580;-74
2021/12/23 06:34:37;;;;;;;23.67;16.50;;;;;;;;;;5070480;28;20267;-74
2021/12/23 06:37:04;;;;;;;22.33;17.23;;;;;;;;;;5069630;28;20662;-74
2021/12/23 06:39:32;;;;;;;21.37;16.67;;;;;;;;;;5069683;28;20217;-73
2021/12/23 06:41:59;;;;;;;22.60;17.07;;;;;;;;;;5068891;28;20265;-74
2021/12/23 06:44:26;;;;;;;23.57;18.40;;;;;;;;;;5069370;28;20612;-74
2021/12/23 06:46:52;;;;;;;26.00;18.93;;;;;;;;;;5069935;28;20218;-74
2021/12/23 06:49:18;;;;;;;25.17;16.67;;;;;;;;;;5069055;28;20770;-73
2021/12/23 06:51:45;;;;;;;24.10;16.43;;;;;;;;;;5068410;28;20214;-76
2021/12/23 06:54:14;;;;;;;24.27;18.63;;;;;;;;;;5069050;28;20680;-76
2021/12/23 06:56:42;;;;;;;30.03;20.17;;;;;;;;;;5068567;28;20730;-74
2021/12/23 06:59:09;;;;;;;26.53;20.27;;;;;;;;;;5068985;28;20216;-74
2021/12/23 07:01:35;;;;;;;26.30;19.20;;;;;;;;;;5066461;28;20717;-74
2021/12/23 07:04:12;;;;;;;25.27;15.57;;;;;;;;;;5070727;28;20210;-74
2021/12/23 07:06:46;;;;;;;26.10;18.30;;;;;;;;;;5068971;28;20792;-74
2021/12/23 07:09:13;;;;;;;25.90;17.20;;;;;;;;;;5067959;28;20591;-74
2021/12/23 07:11:39;;;;;;;30.57;21.10;;;;;;;;;;5066022;28;20231;-74
2021/12/23 07:14:07;;;;;;;29.17;20.10;;;;;;;;;;5065886;28;20272;-74
2021/12/23 07:16:37;;;;;;;27.30;19.07;;;;;;;;;;5068052;28;20287;-74
2021/12/23 07:19:03;;;;;;;28.90;21.17;;;;;;;;;;5068022;28;20234;-74
2021/12/23 07:21:30;;;;;;;24.47;16.53;;;;;;;;;;5066619;28;20263;-74
2021/12/23 07:23:56;;;;;;;26.23;15.73;;;;;;;;;;5069035;28;20290;-74
2021/12/23 07:26:23;;;;;;;33.37;23.17;;;;;;;;;;5066110;28;20230;-74
2021/12/23 07:28:49;;;;;;;31.07;20.77;;;;;;;;;;5065216;28;20664;-75
2021/12/23 07:31:17;;;;;;;36.37;24.00;;;;;;;;;;5066502;28;20230;-76
2021/12/23 07:33:43;;;;;;;37.37;23.70;;;;;;;;;;5069111;28;20210;-73
2021/12/23 07:36:10;;;;;;;40.20;24.47;;;;;;;;;;5066594;28;20883;-76
2021/12/23 07:38:37;;;;;;;36.57;24.33;;;;;;;;;;5065540;28;20262;-74
2021/12/23 07:41:03;;;;;;;37.73;23.47;;;;;;;;;;5068307;28;20223;-74
2021/12/23 07:43:43;;;;;;;42.50;26.83;;;;;;;;;;5067433;28;20688;-75
2021/12/23 07:46:10;;;;;;;38.83;22.47;;;;;;;;;;5071449;28;20233;-75
2021/12/23 07:48:37;;;;;;;38.40;22.50;;;;;;;;;;5071140;28;20696;-75
2021/12/23 07:51:05;;;;;;;41.83;26.37;;;;;;;;;;5069362;28;20241;-76
2021/12/23 07:53:31;;;;;;;41.33;26.50;;;;;;;;;;5071564;28;20676;-75
2021/12/23 07:55:58;;;;;;;39.80;24.00;;;;;;;;;;5070638;28;20228;-76
2021/12/23 07:58:24;;;;;;;42.97;25.90;;;;;;;;;;5071407;28;20654;-76
2021/12/23 08:00:51;;;;;;;45.17;27.83;;;;;;;;;;5070619;28;20220;-76
2021/12/23 08:03:17;;;;;;;36.97;24.50;;;;;;;;;;5069711;28;20641;-75
2021/12/23 08:05:45;;;;;;;45.87;25.03;;;;;;;;;;5069041;28;20264;-75
2021/12/23 08:08:11;;;;;;;43.63;25.77;;;;;;;;;;5067870;28;20211;-76
2021/12/23 08:10:38;;;;;;;40.97;26.13;;;;;;;;;;5070548;28;20297;-76
2021/12/23 08:13:04;;;;;;;42.10;25.20;;;;;;;;;;5068929;28;20205;-77
2021/12/23 08:15:31;;;;;;;41.80;24.70;;;;;;;;;;5069227;28;21046;-76
2021/12/23 08:17:58;;;;;;;44.93;26.27;;;;;;;;;;5071079;28;20269;-76
2021/12/23 08:20:24;;;;;;;43.37;25.27;;;;;;;;;;5071138;28;20208;-76
2021/12/23 08:22:52;;;;;;;45.40;27.17;;;;;;;;;;5070326;28;20266;-76
2021/12/23 08:25:18;;;;;;;43.17;27.63;;;;;;;;;;5070614;28;20491;-76
2021/12/23 08:27:45;;;;;;;39.30;24.93;;;;;;;;;;5070588;28;20265;-76
2021/12/23 08:30:14;;;;;;;39.07;23.10;;;;;;;;;;5067791;28;20650;-76
2021/12/23 08:32:41;;;;;;;43.13;26.37;;;;;;;;;;5069768;28;20275;-76
2021/12/23 08:35:09;;;;;;;42.63;27.37;;;;;;;;;;5069135;28;20203;-76
2021/12/23 08:37:36;;;;;;;42.10;24.27;;;;;;;;;;5071025;28;20211;-76
2021/12/23 08:40:05;;;;;;;42.33;24.10;;;;;;;;;;5068688;28;20241;-76
2021/12/23 08:42:31;;;;;;;37.67;22.90;;;;;;;;;;5070635;28;20213;-76
2021/12/23 08:44:58;;;;;;;45.30;25.03;;;;;;;;;;5068717;28;20211;-76
2021/12/23 08:47:24;;;;;;;46.30;26.40;;;;;;;;;;5070687;28;20285;-76
2021/12/23 08:49:51;;;;;;;42.87;24.23;;;;;;;;;;5068758;28;20237;-76
2021/12/23 08:52:17;;;;;;;31.07;19.70;;;;;;;;;;5070687;28;20271;-76
2021/12/23 08:54:44;;;;;;;41.13;24.47;;;;;;;;;;5069021;28;20599;-76
2021/12/23 08:57:12;;;;;;;44.20;26.07;;;;;;;;;;5068237;28;20211;-76
2021/12/23 08:59:38;;;;;;;34.57;20.20;;;;;;;;;;5070694;28;20210;-75
2021/12/23 09:02:05;;;;;;;31.67;18.40;;;;;;;;;;5069714;28;20219;-76
2021/12/23 09:04:32;;;;;;;49.03;28.87;;;;;;;;;;5070169;28;20270;-75
2021/12/23 09:06:58;;;;;;;42.00;22.77;;;;;;;;;;5068647;28;20279;-75
2021/12/23 09:09:25;;;;;;;46.07;25.27;;;;;;;;;;5070422;28;20212;-75
2021/12/23 09:11:52;;;;;;;50.93;29.17;;;;;;;;;;5067876;28;20231;-75
2021/12/23 09:14:20;;;;;;;43.60;25.03;;;;;;;;;;5069821;28;20209;-75
2021/12/23 09:16:46;;;;;;;50.83;28.13;;;;;;;;;;5069244;28;20286;-75
2021/12/23 09:19:14;;;;;;;45.40;25.00;;;;;;;;;;5068761;28;20576;-75
2021/12/23 09:21:40;;;;;;;49.90;29.33;;;;;;;;;;5069787;28;20209;-75
2021/12/23 09:24:07;;;;;;;41.50;22.73;;;;;;;;;;5068565;28;20283;-75
2021/12/23 09:26:44;;;;;;;49.53;29.07;;;;;;;;;;5070725;28;20227;-75
2021/12/23 09:29:15;;;;;;;53.03;30.07;;;;;;;;;;5069779;28;20913;-75
2021/12/23 09:34:27;;;;;;;40.30;20.20;;;;;;;;;;5069051;28;20248;-75
2021/12/23 09:36:54;;;;;;;54.63;29.07;;;;;;;;;;5070133;28;20270;-75
2021/12/23 09:39:21;;;;;;;47.63;24.80;;;;;;;;;;5069317;28;20861;-76
2021/12/23 09:41:48;;;;;;;48.37;26.00;;;;;;;;;;5069834;28;20217;-75
2021/12/23 09:44:15;;;;;;;54.00;28.63;;;;;;;;;;5068860;28;20212;-76
2021/12/23 09:46:43;;;;;;;49.73;28.10;;;;;;;;;;5068356;28;21132;-76
2021/12/23 09:49:10;;;;;;;53.60;30.23;;;;;;;;;;5067256;28;20239;-75
2021/12/23 09:51:38;;;;;;;41.73;24.73;;;;;;;;;;5069603;28;20641;-75
2021/12/23 09:54:06;;;;;;;48.20;26.73;;;;;;;;;;5067594;28;20211;-76
2021/12/23 09:56:34;;;;;;;57.37;32.83;;;;;;;;;;5067895;28;20228;-76
2021/12/23 09:59:02;;;;;;;51.60;31.03;;;;;;;;;;5068335;28;20217;-76
2021/12/23 10:01:31;;;;;;;50.63;27.33;;;;;;;;;;5068782;28;20246;-75
2021/12/23 10:03:59;;;;;;;46.97;27.10;;;;;;;;;;5069681;28;20216;-75
2021/12/23 10:06:26;;;;;;;50.97;29.37;;;;;;;;;;5067497;28;20247;-75
2021/12/23 10:08:53;;;;;;;47.00;27.13;;;;;;;;;;5068899;28;20248;-76
2021/12/23 10:11:28;;;;;;;47.63;28.80;;;;;;;;;;5066389;28;20231;-76
2021/12/23 10:30:34;;;;;;;37.37;21.83;;;;;;;;;;5049253;28;20231;-76
2021/12/23 10:38:36;;;;;;;46.97;27.43;;;;;;;;;;5067378;28;20251;-76
2021/12/23 10:41:06;;;;;;;44.50;26.33;;;;;;;;;;5067480;28;20655;-76
2021/12/23 10:43:35;;;;;;;45.40;28.13;;;;;;;;;;5062683;28;20214;-75
2021/12/23 10:46:05;;;;;;;48.67;28.30;;;;;;;;;;5066866;28;20234;-75
2021/12/23 10:48:34;;;;;;;47.07;27.70;;;;;;;;;;5069120;28;20226;-75
2021/12/23 10:51:06;;;;;;;45.67;25.90;;;;;;;;;;5066066;28;20326;-77
2021/12/23 10:53:51;;;;;;;47.60;27.80;;;;;;;;;;5067370;28;20291;-75
2021/12/23 10:59:10;;;;;;;40.00;24.20;;;;;;;;;;5069953;28;20257;-75
2021/12/23 11:01:40;;;;;;;46.73;25.27;;;;;;;;;;5067069;28;20225;-75
2021/12/23 11:04:09;;;;;;;43.90;25.77;;;;;;;;;;5066872;28;20226;-75
2021/12/23 11:06:43;;;;;;;45.83;27.77;;;;;;;;;;5067736;28;20608;-75
2021/12/23 11:09:34;;;;;;;37.47;24.37;;;;;;;;;;5068008;28;20209;-75
2021/12/23 11:35:47;;;;;;;45.63;25.97;;;;;;;;;;5057578;28;20237;-76
2021/12/23 11:38:08;;;;;;;47.40;27.37;;;;;;;;;;5067675;28;20246;-76
2021/12/23 11:46:09;;;;;;;46.00;27.93;;;;;;;;;;5051509;28;20308;-76
2021/12/23 11:48:41;;;;;;;48.67;29.60;;;;;;;;;;5066272;28;20214;-76
2021/12/23 11:51:14;;;;;;;44.90;27.37;;;;;;;;;;5066307;28;20377;-76
2021/12/23 11:53:41;;;;;;;45.23;28.67;;;;;;;;;;5066313;28;20224;-75
2021/12/23 11:56:11;;;;;;;38.40;23.73;;;;;;;;;;5067012;28;20277;-76
2021/12/23 11:58:42;;;;;;;45.53;27.00;;;;;;;;;;5065289;28;20217;-76
2021/12/23 12:01:10;;;;;;;49.97;28.53;;;;;;;;;;5066802;28;20227;-76
2021/12/23 12:03:40;;;;;;;47.47;28.37;;;;;;;;;;5065251;28;20681;-76
2021/12/23 12:06:14;;;;;;;43.23;27.40;;;;;;;;;;5066531;28;20216;-76
2021/12/23 12:08:41;;;;;;;43.97;26.80;;;;;;;;;;5066432;28;20281;-76
2021/12/23 12:11:17;;;;;;;41.63;25.23;;;;;;;;;;5065174;28;20226;-76
2021/12/23 12:13:43;;;;;;;45.60;28.33;;;;;;;;;;5066014;28;20207;-76
2021/12/23 12:16:33;;;;;;;41.40;25.80;;;;;;;;;;5066200;28;20838;-76
2021/12/23 12:19:00;;;;;;;41.80;26.40;;;;;;;;;;5065505;28;20205;-75
2021/12/23 12:21:31;;;;;;;41.33;25.13;;;;;;;;;;5066562;28;20272;-76
2021/12/23 12:24:09;;;;;;;45.83;28.03;;;;;;;;;;5066235;28;20209;-75
2021/12/23 12:26:52;;;;;;;39.53;25.37;;;;;;;;;;5065804;28;20279;-76
2021/12/23 12:29:21;;;;;;;43.53;26.60;;;;;;;;;;5068267;28;20918;-76
2021/12/23 12:31:48;;;;;;;42.40;25.83;;;;;;;;;;5071338;28;20713;-76
2021/12/23 12:34:14;;;;;;;45.37;25.90;;;;;;;;;;5071482;28;20581;-77
2021/12/23 12:36:43;;;;;;;47.23;27.53;;;;;;;;;;5071006;28;20631;-75
2021/12/23 12:39:17;;;;;;;46.77;27.67;;;;;;;;;;5069607;28;20555;-76
2021/12/23 12:41:46;;;;;;;46.67;27.43;;;;;;;;;;5071620;28;20234;-76
2021/12/23 12:44:19;;;;;;;40.67;24.70;;;;;;;;;;5071564;28;20706;-77
2021/12/23 12:47:03;;;;;;;42.47;24.73;;;;;;;;;;5070097;28;20236;-76
2021/12/23 12:49:34;;;;;;;46.73;27.77;;;;;;;;;;5069121;28;20294;-76
2021/12/23 12:52:16;;;;;;;45.57;26.63;;;;;;;;;;5070554;28;20241;-76
2021/12/23 12:54:48;;;;;;;44.93;27.67;;;;;;;;;;5069809;28;20222;-76
2021/12/23 12:57:18;;;;;;;51.10;30.27;;;;;;;;;;5069548;28;20221;-78
2021/12/23 12:59:47;;;;;;;42.87;27.10;;;;;;;;;;5069530;28;20202;-79
2021/12/23 13:02:28;;;;;;;39.53;24.80;;;;;;;;;;5070513;28;20231;-78
2021/12/23 13:04:59;;;;;;;40.47;25.57;;;;;;;;;;5070883;28;20662;-77
2021/12/23 13:07:29;;;;;;;40.80;24.40;;;;;;;;;;5069666;28;20968;-77
2021/12/23 13:10:01;;;;;;;45.83;25.80;;;;;;;;;;5070335;28;21068;-77
2021/12/23 13:12:35;;;;;;;43.90;27.37;;;;;;;;;;5069309;28;20306;-77
2021/12/23 13:15:17;;;;;;;41.97;26.03;;;;;;;;;;5070283;28;20209;-78
2021/12/23 13:18:03;;;;;;;38.70;24.77;;;;;;;;;;5070980;28;20225;-77
2021/12/23 13:20:36;;;;;;;46.43;27.07;;;;;;;;;;5071328;28;20216;-78
2021/12/23 13:23:04;;;;;;;37.67;23.70;;;;;;;;;;5070755;28;20636;-77
2021/12/23 13:25:31;;;;;;;42.30;24.87;;;;;;;;;;5068466;28;20823;-77
2021/12/23 13:28:00;;;;;;;41.60;25.43;;;;;;;;;;5071063;28;20659;-78
2021/12/23 13:30:27;;;;;;;36.77;23.83;;;;;;;;;;5075420;28;20213;-80
2021/12/23 13:32:58;;;;;;;43.10;26.00;;;;;;;;;;5075355;28;20229;-80
2021/12/23 13:35:25;;;;;;;43.00;26.83;;;;;;;;;;5073952;28;20303;-79
2021/12/23 13:37:52;;;;;;;43.90;23.77;;;;;;;;;;5076287;28;20333;-80
2021/12/23 13:40:27;;;;;;;43.17;26.33;;;;;;;;;;5075590;28;20224;-80
2021/12/23 13:42:54;;;;;;;39.73;23.70;;;;;;;;;;5072044;28;20582;-80
2021/12/23 13:45:21;;;;;;;41.30;24.83;;;;;;;;;;5074143;28;20555;-80
2021/12/23 13:47:52;;;;;;;46.67;26.63;;;;;;;;;;5071447;28;20220;-80
2021/12/23 13:50:20;;;;;;;40.47;25.43;;;;;;;;;;5074413;28;20708;-80
2021/12/23 13:52:49;;;;;;;50.27;27.67;;;;;;;;;;5078198;28;20237;-80
2021/12/23 13:55:19;;;;;;;45.47;27.03;;;;;;;;;;5073632;28;20246;-79
2021/12/23 13:57:50;;;;;;;48.90;27.73;;;;;;;;;;5076477;28;20217;-79
2021/12/23 14:00:19;;;;;;;44.40;26.10;;;;;;;;;;5075557;28;21006;-80
2021/12/23 14:02:50;;;;;;;49.47;27.57;;;;;;;;;;5071568;28;20234;-80
2021/12/23 14:05:17;;;;;;;47.27;27.57;;;;;;;;;;5074789;28;20217;-79
2021/12/23 14:07:47;;;;;;;43.73;27.47;;;;;;;;;;5073077;28;20298;-79
2021/12/23 14:10:16;;;;;;;48.47;27.27;;;;;;;;;;5073225;28;20222;-79
2021/12/23 14:12:49;;;;;;;42.40;25.40;;;;;;;;;;5070210;28;20237;-76
2021/12/23 14:15:17;;;;;;;41.90;26.53;;;;;;;;;;5068578;28;20217;-76
2021/12/23 14:17:46;;;;;;;46.67;27.07;;;;;;;;;;5067424;28;20275;-78
2021/12/23 14:23:13;;;;;;;41.43;25.47;;;;;;;;;;5072223;28;20872;-79
2021/12/23 14:25:52;;;;;;;46.00;26.67;;;;;;;;;;5070940;28;20642;-79
2021/12/23 14:28:21;;;;;;;43.83;27.30;;;;;;;;;;5072692;28;20770;-79
2021/12/23 14:30:51;;;;;;;47.67;28.30;;;;;;;;;;5072159;28;20235;-78
2021/12/23 14:33:22;;;;;;;45.40;27.00;;;;;;;;;;5072691;28;20307;-78
2021/12/23 14:35:59;;;;;;;48.47;26.40;;;;;;;;;;5068059;28;20213;-78
2021/12/23 14:38:28;;;;;;;40.67;23.43;;;;;;;;;;5071247;28;20666;-78
2021/12/23 14:41:04;;;;;;;44.37;26.43;;;;;;;;;;5069077;28;20617;-78
2021/12/23 14:43:59;;;;;;;40.97;22.97;;;;;;;;;;5070798;28;20896;-78
2021/12/23 14:46:42;;;;;;;42.47;24.83;;;;;;;;;;5050537;28;20282;-75
2021/12/23 14:51:52;;;;;;;43.10;26.63;;;;;;;;;;5058853;28;20320;-78
2021/12/23 14:54:21;;;;;;;45.17;25.40;;;;;;;;;;5066017;28;20216;-75
2021/12/23 14:56:50;;;;;;;41.97;25.80;;;;;;;;;;5066282;28;20224;-78
2021/12/23 14:59:19;;;;;;;36.70;24.20;;;;;;;;;;5067158;28;20612;-76
2021/12/23 15:01:47;;;;;;;39.03;24.90;;;;;;;;;;5066876;28;20277;-76
2021/12/23 15:04:17;;;;;;;38.80;24.27;;;;;;;;;;5067109;28;20240;-75
2021/12/23 15:07:07;;;;;;;40.27;26.03;;;;;;;;;;5066689;28;20938;-76
2021/12/23 15:09:37;;;;;;;43.63;27.07;;;;;;;;;;5067489;28;20206;-75
2021/12/23 15:12:12;;;;;;;39.47;23.70;;;;;;;;;;5065721;28;20213;-75
2021/12/23 15:14:44;;;;;;;36.60;22.80;;;;;;;;;;5065792;28;20213;-75
2021/12/23 15:17:16;;;;;;;41.67;26.03;;;;;;;;;;5067978;28;20307;-75
2021/12/23 15:19:48;;;;;;;41.37;24.77;;;;;;;;;;5066489;28;20921;-75
2021/12/23 15:22:18;;;;;;;37.93;25.17;;;;;;;;;;5066568;28;20202;-76
2021/12/23 15:24:46;;;;;;;39.67;26.33;;;;;;;;;;5063530;28;20295;-75
2021/12/23 15:27:20;;;;;;;38.80;23.97;;;;;;;;;;5065799;28;20210;-75
2021/12/23 15:29:50;;;;;;;34.30;21.37;;;;;;;;;;5066627;28;20219;-75